sensor_id;sensor_type;location;lat;lon;timestamp;P1;durP1;ratioP1;P2;durP2;ratioP2
58878;SDS011;44660;42.664;23.266;2023-03-01T00:01:46;8.20;;;4.60;;
58878;SDS011;44660;42.664;23.266;2023-03-01T00:04:12;9.07;;;4.57;;
58878;SDS011;44660;42.664;23.266;2023-03-01T00:06:38;9.63;;;4.53;;
58878;SDS011;44660;42.664;23.266;2023-03-01T00:09:03;7.80;;;4.70;;
58878;SDS011;44660;42.664;23.266;2023-03-01T00:11:29;6.65;;;4.68;;
58878;SDS011;44660;42.664;23.266;2023-03-01T00:13:58;5.88;;;4.10;;
58878;SDS011;44660;42.664;23.266;2023-03-01T00:16:30;6.43;;;4.30;;
58878;SDS011;44660;42.664;23.266;2023-03-01T00:18:58;5.18;;;4.15;;
58878;SDS011;44660;42.664;23.266;2023-03-01T00:21:24;5.32;;;3.97;;
58878;SDS011;44660;42.664;23.266;2023-03-01T00:23:51;5.90;;;3.90;;
58878;SDS011;44660;42.664;23.266;2023-03-01T00:26:17;6.68;;;3.80;;
58878;SDS011;44660;42.664;23.266;2023-03-01T00:28:44;6.15;;;4.47;;
58878;SDS011;44660;42.664;23.266;2023-03-01T00:31:11;4.88;;;3.60;;
58878;SDS011;44660;42.664;23.266;2023-03-01T00:33:38;5.32;;;3.88;;
58878;SDS011;44660;42.664;23.266;2023-03-01T00:36:04;4.32;;;3.50;;
58878;SDS011;44660;42.664;23.266;2023-03-01T00:38:34;4.43;;;3.40;;
58878;SDS011;44660;42.664;23.266;2023-03-01T00:41:08;4.38;;;3.15;;
58878;SDS011;44660;42.664;23.266;2023-03-01T00:43:35;5.07;;;3.45;;
58878;SDS011;44660;42.664;23.266;2023-03-01T00:46:05;4.47;;;3.30;;
58878;SDS011;44660;42.664;23.266;2023-03-01T00:48:33;3.97;;;2.95;;
58878;SDS011;44660;42.664;23.266;2023-03-01T00:53:31;3.47;;;2.95;;
58878;SDS011;44660;42.664;23.266;2023-03-01T00:55:57;3.95;;;3.30;;
58878;SDS011;44660;42.664;23.266;2023-03-01T00:58:23;4.55;;;3.17;;
58878;SDS011;44660;42.664;23.266;2023-03-01T01:00:49;3.22;;;2.92;;
58878;SDS011;44660;42.664;23.266;2023-03-01T01:03:14;6.03;;;4.57;;
58878;SDS011;44660;42.664;23.266;2023-03-01T01:05:39;3.40;;;3.00;;
58878;SDS011;44660;42.664;23.266;2023-03-01T01:08:05;3.90;;;3.08;;
58878;SDS011;44660;42.664;23.266;2023-03-01T01:10:33;5.22;;;3.55;;
58878;SDS011;44660;42.664;23.266;2023-03-01T01:12:59;4.95;;;3.42;;
58878;SDS011;44660;42.664;23.266;2023-03-01T01:15:24;9.05;;;4.80;;
58878;SDS011;44660;42.664;23.266;2023-03-01T01:17:50;7.57;;;3.95;;
58878;SDS011;44660;42.664;23.266;2023-03-01T01:20:16;16.55;;;6.88;;
58878;SDS011;44660;42.664;23.266;2023-03-01T01:22:41;3.88;;;2.90;;
58878;SDS011;44660;42.664;23.266;2023-03-01T01:25:07;4.50;;;2.85;;
58878;SDS011;44660;42.664;23.266;2023-03-01T01:27:33;3.25;;;2.58;;
58878;SDS011;44660;42.664;23.266;2023-03-01T01:29:59;3.53;;;2.63;;
58878;SDS011;44660;42.664;23.266;2023-03-01T01:32:24;4.47;;;2.70;;
58878;SDS011;44660;42.664;23.266;2023-03-01T01:34:50;5.57;;;3.58;;
58878;SDS011;44660;42.664;23.266;2023-03-01T01:37:15;3.03;;;2.00;;
58878;SDS011;44660;42.664;23.266;2023-03-01T01:39:41;2.95;;;2.20;;
58878;SDS011;44660;42.664;23.266;2023-03-01T01:42:09;3.08;;;2.47;;
58878;SDS011;44660;42.664;23.266;2023-03-01T01:44:42;2.30;;;2.10;;
58878;SDS011;44660;42.664;23.266;2023-03-01T01:47:18;2.42;;;2.20;;
58878;SDS011;44660;42.664;23.266;2023-03-01T01:49:47;2.30;;;1.90;;
58878;SDS011;44660;42.664;23.266;2023-03-01T01:55:07;2.03;;;1.77;;
58878;SDS011;44660;42.664;23.266;2023-03-01T01:57:40;2.70;;;1.83;;
58878;SDS011;44660;42.664;23.266;2023-03-01T02:00:09;2.20;;;1.85;;
58878;SDS011;44660;42.664;23.266;2023-03-01T02:02:38;1.70;;;1.50;;
58878;SDS011;44660;42.664;23.266;2023-03-01T02:05:08;1.92;;;1.70;;
58878;SDS011;44660;42.664;23.266;2023-03-01T02:07:39;2.55;;;1.50;;
58878;SDS011;44660;42.664;23.266;2023-03-01T02:10:07;2.00;;;1.60;;
58878;SDS011;44660;42.664;23.266;2023-03-01T02:12:33;2.08;;;1.42;;
58878;SDS011;44660;42.664;23.266;2023-03-01T02:14:59;1.75;;;1.65;;
58878;SDS011;44660;42.664;23.266;2023-03-01T02:17:24;3.10;;;1.40;;
58878;SDS011;44660;42.664;23.266;2023-03-01T02:22:25;1.60;;;1.50;;
58878;SDS011;44660;42.664;23.266;2023-03-01T02:30:38;1.70;;;1.60;;
58878;SDS011;44660;42.664;23.266;2023-03-01T02:33:25;2.22;;;1.80;;
58878;SDS011;44660;42.664;23.266;2023-03-01T02:35:51;2.28;;;2.08;;
58878;SDS011;44660;42.664;23.266;2023-03-01T02:38:18;2.05;;;1.70;;
58878;SDS011;44660;42.664;23.266;2023-03-01T02:40:44;12.88;;;5.18;;
58878;SDS011;44660;42.664;23.266;2023-03-01T02:43:10;2.50;;;2.17;;
58878;SDS011;44660;42.664;23.266;2023-03-01T02:45:38;3.00;;;2.28;;
58878;SDS011;44660;42.664;23.266;2023-03-01T02:48:13;2.40;;;2.20;;
58878;SDS011;44660;42.664;23.266;2023-03-01T02:50:44;2.60;;;2.20;;
58878;SDS011;44660;42.664;23.266;2023-03-01T02:53:21;2.08;;;1.88;;
58878;SDS011;44660;42.664;23.266;2023-03-01T02:55:53;2.00;;;1.80;;
58878;SDS011;44660;42.664;23.266;2023-03-01T02:58:19;2.97;;;2.20;;
58878;SDS011;44660;42.664;23.266;2023-03-01T03:00:44;2.78;;;2.38;;
58878;SDS011;44660;42.664;23.266;2023-03-01T03:03:15;4.63;;;2.75;;
58878;SDS011;44660;42.664;23.266;2023-03-01T03:05:48;3.22;;;2.42;;
58878;SDS011;44660;42.664;23.266;2023-03-01T03:08:14;10.88;;;4.80;;
58878;SDS011;44660;42.664;23.266;2023-03-01T03:10:44;14.82;;;8.38;;
58878;SDS011;44660;42.664;23.266;2023-03-01T03:13:11;3.30;;;2.70;;
58878;SDS011;44660;42.664;23.266;2023-03-01T03:15:38;4.10;;;3.03;;
58878;SDS011;44660;42.664;23.266;2023-03-01T03:18:05;3.75;;;3.38;;
58878;SDS011;44660;42.664;23.266;2023-03-01T03:20:33;4.15;;;3.70;;
58878;SDS011;44660;42.664;23.266;2023-03-01T03:22:59;4.50;;;4.10;;
58878;SDS011;44660;42.664;23.266;2023-03-01T03:25:26;5.85;;;4.30;;
58878;SDS011;44660;42.664;23.266;2023-03-01T03:27:52;11.38;;;6.38;;
58878;SDS011;44660;42.664;23.266;2023-03-01T03:30:23;6.97;;;4.65;;
58878;SDS011;44660;42.664;23.266;2023-03-01T03:32:50;8.15;;;4.97;;
58878;SDS011;44660;42.664;23.266;2023-03-01T03:35:22;6.68;;;4.80;;
58878;SDS011;44660;42.664;23.266;2023-03-01T03:37:51;6.03;;;4.65;;
58878;SDS011;44660;42.664;23.266;2023-03-01T03:40:34;7.35;;;5.00;;
58878;SDS011;44660;42.664;23.266;2023-03-01T03:43:03;7.40;;;5.60;;
58878;SDS011;44660;42.664;23.266;2023-03-01T03:45:29;6.95;;;5.35;;
58878;SDS011;44660;42.664;23.266;2023-03-01T03:47:58;9.98;;;7.10;;
58878;SDS011;44660;42.664;23.266;2023-03-01T03:50:27;7.40;;;4.50;;
58878;SDS011;44660;42.664;23.266;2023-03-01T03:52:52;6.93;;;4.93;;
58878;SDS011;44660;42.664;23.266;2023-03-01T03:55:18;6.43;;;4.30;;
58878;SDS011;44660;42.664;23.266;2023-03-01T03:57:44;7.10;;;5.32;;
58878;SDS011;44660;42.664;23.266;2023-03-01T04:00:30;7.13;;;5.32;;
58878;SDS011;44660;42.664;23.266;2023-03-01T04:03:15;5.25;;;3.65;;
58878;SDS011;44660;42.664;23.266;2023-03-01T04:05:41;6.32;;;4.15;;
58878;SDS011;44660;42.664;23.266;2023-03-01T04:08:08;5.90;;;4.10;;
58878;SDS011;44660;42.664;23.266;2023-03-01T04:10:40;4.47;;;3.42;;
58878;SDS011;44660;42.664;23.266;2023-03-01T04:13:09;4.45;;;3.35;;
58878;SDS011;44660;42.664;23.266;2023-03-01T04:15:36;4.53;;;3.58;;
58878;SDS011;44660;42.664;23.266;2023-03-01T04:18:02;5.30;;;3.38;;
58878;SDS011;44660;42.664;23.266;2023-03-01T04:20:29;4.05;;;3.30;;
58878;SDS011;44660;42.664;23.266;2023-03-01T04:23:00;4.38;;;3.30;;
58878;SDS011;44660;42.664;23.266;2023-03-01T04:25:36;4.83;;;3.37;;
58878;SDS011;44660;42.664;23.266;2023-03-01T04:28:03;4.68;;;3.30;;
58878;SDS011;44660;42.664;23.266;2023-03-01T04:30:28;4.57;;;3.38;;
58878;SDS011;44660;42.664;23.266;2023-03-01T04:32:54;6.97;;;4.32;;
58878;SDS011;44660;42.664;23.266;2023-03-01T04:35:19;8.00;;;5.30;;
58878;SDS011;44660;42.664;23.266;2023-03-01T04:37:45;11.50;;;7.30;;
58878;SDS011;44660;42.664;23.266;2023-03-01T04:40:11;5.07;;;4.00;;
58878;SDS011;44660;42.664;23.266;2023-03-01T04:42:41;7.40;;;5.22;;
58878;SDS011;44660;42.664;23.266;2023-03-01T04:45:07;8.73;;;5.55;;
58878;SDS011;44660;42.664;23.266;2023-03-01T04:47:41;8.82;;;5.28;;
58878;SDS011;44660;42.664;23.266;2023-03-01T04:50:08;4.15;;;3.20;;
58878;SDS011;44660;42.664;23.266;2023-03-01T04:52:35;6.72;;;3.95;;
58878;SDS011;44660;42.664;23.266;2023-03-01T04:55:01;5.45;;;3.60;;
58878;SDS011;44660;42.664;23.266;2023-03-01T04:57:26;5.22;;;3.50;;
58878;SDS011;44660;42.664;23.266;2023-03-01T04:59:52;9.43;;;4.72;;
58878;SDS011;44660;42.664;23.266;2023-03-01T05:02:18;5.38;;;3.72;;
58878;SDS011;44660;42.664;23.266;2023-03-01T05:04:43;5.78;;;4.05;;
58878;SDS011;44660;42.664;23.266;2023-03-01T05:07:08;6.78;;;4.07;;
58878;SDS011;44660;42.664;23.266;2023-03-01T05:09:34;7.10;;;4.10;;
58878;SDS011;44660;42.664;23.266;2023-03-01T05:11:59;6.15;;;4.30;;
58878;SDS011;44660;42.664;23.266;2023-03-01T05:14:25;5.18;;;3.70;;
58878;SDS011;44660;42.664;23.266;2023-03-01T05:16:50;5.35;;;3.70;;
58878;SDS011;44660;42.664;23.266;2023-03-01T05:19:16;5.95;;;3.38;;
58878;SDS011;44660;42.664;23.266;2023-03-01T05:21:44;5.32;;;3.50;;
58878;SDS011;44660;42.664;23.266;2023-03-01T05:24:28;4.28;;;3.42;;
58878;SDS011;44660;42.664;23.266;2023-03-01T05:26:55;6.75;;;3.97;;
58878;SDS011;44660;42.664;23.266;2023-03-01T05:29:21;6.63;;;4.63;;
58878;SDS011;44660;42.664;23.266;2023-03-01T05:34:23;7.95;;;4.60;;
58878;SDS011;44660;42.664;23.266;2023-03-01T05:36:53;13.07;;;7.18;;
58878;SDS011;44660;42.664;23.266;2023-03-01T05:39:23;9.98;;;5.22;;
58878;SDS011;44660;42.664;23.266;2023-03-01T05:41:54;7.15;;;4.50;;
58878;SDS011;44660;42.664;23.266;2023-03-01T05:44:21;7.38;;;3.90;;
58878;SDS011;44660;42.664;23.266;2023-03-01T05:46:47;7.45;;;4.10;;
58878;SDS011;44660;42.664;23.266;2023-03-01T05:49:12;8.98;;;6.13;;
58878;SDS011;44660;42.664;23.266;2023-03-01T05:51:39;8.77;;;5.57;;
58878;SDS011;44660;42.664;23.266;2023-03-01T05:54:05;7.05;;;3.70;;
58878;SDS011;44660;42.664;23.266;2023-03-01T05:56:32;3.97;;;3.00;;
58878;SDS011;44660;42.664;23.266;2023-03-01T05:59:01;4.68;;;2.80;;
58878;SDS011;44660;42.664;23.266;2023-03-01T06:01:27;3.55;;;2.70;;
58878;SDS011;44660;42.664;23.266;2023-03-01T06:03:54;4.07;;;2.60;;
58878;SDS011;44660;42.664;23.266;2023-03-01T06:06:24;5.85;;;3.90;;
58878;SDS011;44660;42.664;23.266;2023-03-01T06:08:50;8.52;;;5.70;;
58878;SDS011;44660;42.664;23.266;2023-03-01T06:11:16;11.02;;;4.60;;
58878;SDS011;44660;42.664;23.266;2023-03-01T06:13:42;6.75;;;3.20;;
58878;SDS011;44660;42.664;23.266;2023-03-01T06:16:09;4.72;;;2.45;;
58878;SDS011;44660;42.664;23.266;2023-03-01T06:18:35;4.07;;;2.60;;
58878;SDS011;44660;42.664;23.266;2023-03-01T06:21:01;3.22;;;2.67;;
58878;SDS011;44660;42.664;23.266;2023-03-01T06:23:26;4.45;;;2.78;;
58878;SDS011;44660;42.664;23.266;2023-03-01T06:25:52;6.00;;;2.58;;
58878;SDS011;44660;42.664;23.266;2023-03-01T06:28:18;3.38;;;2.42;;
58878;SDS011;44660;42.664;23.266;2023-03-01T06:30:43;4.80;;;2.90;;
58878;SDS011;44660;42.664;23.266;2023-03-01T06:33:09;14.25;;;8.52;;
58878;SDS011;44660;42.664;23.266;2023-03-01T06:35:35;29.33;;;10.68;;
58878;SDS011;44660;42.664;23.266;2023-03-01T06:38:01;4.13;;;2.53;;
58878;SDS011;44660;42.664;23.266;2023-03-01T06:40:27;3.97;;;2.58;;
58878;SDS011;44660;42.664;23.266;2023-03-01T06:42:54;4.50;;;3.00;;
58878;SDS011;44660;42.664;23.266;2023-03-01T06:45:20;3.60;;;2.58;;
58878;SDS011;44660;42.664;23.266;2023-03-01T06:47:46;3.90;;;2.75;;
58878;SDS011;44660;42.664;23.266;2023-03-01T06:50:12;5.22;;;2.63;;
58878;SDS011;44660;42.664;23.266;2023-03-01T06:52:38;3.83;;;2.53;;
58878;SDS011;44660;42.664;23.266;2023-03-01T06:55:04;7.65;;;3.30;;
58878;SDS011;44660;42.664;23.266;2023-03-01T06:57:30;5.85;;;2.83;;
58878;SDS011;44660;42.664;23.266;2023-03-01T06:59:57;3.55;;;2.28;;
58878;SDS011;44660;42.664;23.266;2023-03-01T07:02:22;4.82;;;3.38;;
58878;SDS011;44660;42.664;23.266;2023-03-01T07:04:49;3.42;;;2.80;;
58878;SDS011;44660;42.664;23.266;2023-03-01T07:07:15;8.15;;;2.58;;
58878;SDS011;44660;42.664;23.266;2023-03-01T07:09:43;4.20;;;2.08;;
58878;SDS011;44660;42.664;23.266;2023-03-01T07:12:11;2.53;;;1.70;;
58878;SDS011;44660;42.664;23.266;2023-03-01T07:14:37;3.25;;;2.22;;
58878;SDS011;44660;42.664;23.266;2023-03-01T07:17:02;3.97;;;1.95;;
58878;SDS011;44660;42.664;23.266;2023-03-01T07:19:29;4.57;;;2.15;;
58878;SDS011;44660;42.664;23.266;2023-03-01T07:21:55;4.00;;;2.40;;
58878;SDS011;44660;42.664;23.266;2023-03-01T07:24:21;5.75;;;2.25;;
58878;SDS011;44660;42.664;23.266;2023-03-01T07:26:50;3.35;;;1.90;;
58878;SDS011;44660;42.664;23.266;2023-03-01T07:29:16;3.08;;;2.30;;
58878;SDS011;44660;42.664;23.266;2023-03-01T07:31:41;4.65;;;2.08;;
58878;SDS011;44660;42.664;23.266;2023-03-01T07:34:07;3.35;;;2.28;;
58878;SDS011;44660;42.664;23.266;2023-03-01T07:36:32;3.90;;;2.30;;
58878;SDS011;44660;42.664;23.266;2023-03-01T07:38:57;6.93;;;2.45;;
58878;SDS011;44660;42.664;23.266;2023-03-01T07:41:23;4.43;;;2.28;;
58878;SDS011;44660;42.664;23.266;2023-03-01T07:43:49;3.70;;;2.05;;
58878;SDS011;44660;42.664;23.266;2023-03-01T07:46:14;4.68;;;2.45;;
58878;SDS011;44660;42.664;23.266;2023-03-01T07:48:40;3.88;;;2.17;;
58878;SDS011;44660;42.664;23.266;2023-03-01T07:51:05;6.25;;;2.35;;
58878;SDS011;44660;42.664;23.266;2023-03-01T07:53:32;6.47;;;2.92;;
58878;SDS011;44660;42.664;23.266;2023-03-01T07:56:11;6.43;;;2.83;;
58878;SDS011;44660;42.664;23.266;2023-03-01T07:58:39;5.07;;;2.35;;
58878;SDS011;44660;42.664;23.266;2023-03-01T08:01:06;4.38;;;2.90;;
58878;SDS011;44660;42.664;23.266;2023-03-01T08:03:34;4.65;;;2.40;;
58878;SDS011;44660;42.664;23.266;2023-03-01T08:06:01;4.28;;;2.20;;
58878;SDS011;44660;42.664;23.266;2023-03-01T08:08:28;7.85;;;2.20;;
58878;SDS011;44660;42.664;23.266;2023-03-01T08:10:57;4.03;;;2.05;;
58878;SDS011;44660;42.664;23.266;2023-03-01T08:13:24;5.72;;;2.83;;
58878;SDS011;44660;42.664;23.266;2023-03-01T08:15:50;4.88;;;2.60;;
58878;SDS011;44660;42.664;23.266;2023-03-01T08:18:16;4.55;;;2.78;;
58878;SDS011;44660;42.664;23.266;2023-03-01T08:20:42;2.90;;;1.80;;
58878;SDS011;44660;42.664;23.266;2023-03-01T08:23:08;3.17;;;2.28;;
58878;SDS011;44660;42.664;23.266;2023-03-01T08:25:34;3.60;;;2.65;;
58878;SDS011;44660;42.664;23.266;2023-03-01T08:27:59;3.17;;;2.60;;
58878;SDS011;44660;42.664;23.266;2023-03-01T08:30:25;4.82;;;3.67;;
58878;SDS011;44660;42.664;23.266;2023-03-01T08:32:51;5.85;;;4.43;;
58878;SDS011;44660;42.664;23.266;2023-03-01T08:35:17;8.00;;;5.75;;
58878;SDS011;44660;42.664;23.266;2023-03-01T08:37:43;7.30;;;5.00;;
58878;SDS011;44660;42.664;23.266;2023-03-01T08:40:09;5.88;;;4.13;;
58878;SDS011;44660;42.664;23.266;2023-03-01T08:42:36;5.78;;;4.20;;
58878;SDS011;44660;42.664;23.266;2023-03-01T08:45:05;6.85;;;4.03;;
58878;SDS011;44660;42.664;23.266;2023-03-01T08:47:31;6.47;;;3.55;;
58878;SDS011;44660;42.664;23.266;2023-03-01T08:49:56;5.45;;;3.03;;
58878;SDS011;44660;42.664;23.266;2023-03-01T08:52:22;6.47;;;3.83;;
58878;SDS011;44660;42.664;23.266;2023-03-01T08:54:49;9.38;;;4.78;;
58878;SDS011;44660;42.664;23.266;2023-03-01T08:57:15;7.00;;;3.50;;
58878;SDS011;44660;42.664;23.266;2023-03-01T08:59:40;8.00;;;3.00;;
58878;SDS011;44660;42.664;23.266;2023-03-01T09:02:10;5.75;;;2.28;;
58878;SDS011;44660;42.664;23.266;2023-03-01T09:04:38;6.53;;;2.10;;
58878;SDS011;44660;42.664;23.266;2023-03-01T09:07:03;5.57;;;2.90;;
58878;SDS011;44660;42.664;23.266;2023-03-01T09:09:29;3.58;;;2.20;;
58878;SDS011;44660;42.664;23.266;2023-03-01T09:11:55;6.45;;;3.53;;
58878;SDS011;44660;42.664;23.266;2023-03-01T09:14:21;2.17;;;1.98;;
58878;SDS011;44660;42.664;23.266;2023-03-01T09:16:46;2.90;;;2.30;;
58878;SDS011;44660;42.664;23.266;2023-03-01T09:19:12;4.70;;;2.85;;
58878;SDS011;44660;42.664;23.266;2023-03-01T09:21:38;3.72;;;3.03;;
58878;SDS011;44660;42.664;23.266;2023-03-01T09:24:03;4.07;;;2.67;;
58878;SDS011;44660;42.664;23.266;2023-03-01T09:26:29;6.72;;;2.80;;
58878;SDS011;44660;42.664;23.266;2023-03-01T09:28:55;4.28;;;2.55;;
58878;SDS011;44660;42.664;23.266;2023-03-01T09:31:22;4.32;;;2.70;;
58878;SDS011;44660;42.664;23.266;2023-03-01T09:33:50;2.83;;;2.50;;
58878;SDS011;44660;42.664;23.266;2023-03-01T09:36:19;3.33;;;3.03;;
58878;SDS011;44660;42.664;23.266;2023-03-01T09:38:46;5.75;;;2.40;;
58878;SDS011;44660;42.664;23.266;2023-03-01T09:44:00;6.80;;;2.80;;
58878;SDS011;44660;42.664;23.266;2023-03-01T09:46:35;4.43;;;2.50;;
58878;SDS011;44660;42.664;23.266;2023-03-01T09:49:09;7.43;;;3.15;;
58878;SDS011;44660;42.664;23.266;2023-03-01T09:51:39;4.40;;;2.75;;
58878;SDS011;44660;42.664;23.266;2023-03-01T09:54:05;5.88;;;2.53;;
58878;SDS011;44660;42.664;23.266;2023-03-01T09:59:25;6.80;;;2.80;;
58878;SDS011;44660;42.664;23.266;2023-03-01T10:10:43;3.60;;;2.30;;
58878;SDS011;44660;42.664;23.266;2023-03-01T10:13:19;5.93;;;2.50;;
58878;SDS011;44660;42.664;23.266;2023-03-01T10:16:02;6.70;;;2.20;;
58878;SDS011;44660;42.664;23.266;2023-03-01T10:18:41;6.28;;;2.65;;
58878;SDS011;44660;42.664;23.266;2023-03-01T10:23:42;2.78;;;2.22;;
58878;SDS011;44660;42.664;23.266;2023-03-01T10:28:54;8.10;;;2.92;;
58878;SDS011;44660;42.664;23.266;2023-03-01T10:31:22;3.55;;;2.90;;
58878;SDS011;44660;42.664;23.266;2023-03-01T10:33:54;5.93;;;2.50;;
58878;SDS011;44660;42.664;23.266;2023-03-01T10:36:22;4.43;;;2.65;;
58878;SDS011;44660;42.664;23.266;2023-03-01T10:41:14;4.63;;;2.83;;
58878;SDS011;44660;42.664;23.266;2023-03-01T10:43:46;3.42;;;2.65;;
58878;SDS011;44660;42.664;23.266;2023-03-01T10:51:31;4.38;;;2.95;;
58878;SDS011;44660;42.664;23.266;2023-03-01T10:53:57;7.07;;;3.50;;
58878;SDS011;44660;42.664;23.266;2023-03-01T10:56:23;4.95;;;3.10;;
58878;SDS011;44660;42.664;23.266;2023-03-01T11:01:24;4.82;;;3.10;;
58878;SDS011;44660;42.664;23.266;2023-03-01T11:04:10;8.95;;;3.53;;
58878;SDS011;44660;42.664;23.266;2023-03-01T11:06:39;4.45;;;2.72;;
58878;SDS011;44660;42.664;23.266;2023-03-01T11:09:19;5.32;;;2.88;;
58878;SDS011;44660;42.664;23.266;2023-03-01T11:11:52;3.97;;;2.83;;
58878;SDS011;44660;42.664;23.266;2023-03-01T11:14:23;5.55;;;3.20;;
58878;SDS011;44660;42.664;23.266;2023-03-01T11:17:05;7.05;;;3.25;;
58878;SDS011;44660;42.664;23.266;2023-03-01T11:22:35;5.65;;;3.47;;
58878;SDS011;44660;42.664;23.266;2023-03-01T11:25:01;8.45;;;3.13;;
58878;SDS011;44660;42.664;23.266;2023-03-01T11:27:38;6.22;;;3.35;;
58878;SDS011;44660;42.664;23.266;2023-03-01T11:30:09;6.10;;;3.45;;
58878;SDS011;44660;42.664;23.266;2023-03-01T11:35:41;5.80;;;2.90;;
58878;SDS011;44660;42.664;23.266;2023-03-01T11:38:23;4.85;;;3.15;;
58878;SDS011;44660;42.664;23.266;2023-03-01T11:43:42;3.80;;;2.97;;
58878;SDS011;44660;42.664;23.266;2023-03-01T11:52:21;6.28;;;3.58;;
58878;SDS011;44660;42.664;23.266;2023-03-01T12:11:50;4.75;;;3.53;;
58878;SDS011;44660;42.664;23.266;2023-03-01T12:25:31;4.95;;;3.67;;
58878;SDS011;44660;42.664;23.266;2023-03-01T12:47:39;6.38;;;3.75;;
58878;SDS011;44660;42.664;23.266;2023-03-01T12:50:40;5.88;;;3.20;;
58878;SDS011;44660;42.664;23.266;2023-03-01T12:56:10;3.95;;;3.20;;
58878;SDS011;44660;42.664;23.266;2023-03-01T12:58:46;6.07;;;3.75;;
58878;SDS011;44660;42.664;23.266;2023-03-01T13:04:26;4.78;;;3.47;;
58878;SDS011;44660;42.664;23.266;2023-03-01T13:07:30;4.70;;;3.35;;
58878;SDS011;44660;42.664;23.266;2023-03-01T13:10:16;3.33;;;2.60;;
58878;SDS011;44660;42.664;23.266;2023-03-01T13:12:50;3.60;;;3.13;;
58878;SDS011;44660;42.664;23.266;2023-03-01T13:17:57;3.72;;;2.80;;
58878;SDS011;44660;42.664;23.266;2023-03-01T13:21:01;5.18;;;3.10;;
58878;SDS011;44660;42.664;23.266;2023-03-01T13:23:25;4.03;;;3.05;;
58878;SDS011;44660;42.664;23.266;2023-03-01T13:26:03;4.13;;;3.03;;
58878;SDS011;44660;42.664;23.266;2023-03-01T13:31:11;5.95;;;3.42;;
58878;SDS011;44660;42.664;23.266;2023-03-01T13:33:55;4.47;;;3.30;;
58878;SDS011;44660;42.664;23.266;2023-03-01T13:44:20;6.03;;;3.30;;
58878;SDS011;44660;42.664;23.266;2023-03-01T13:47:02;5.15;;;2.90;;
58878;SDS011;44660;42.664;23.266;2023-03-01T13:49:41;5.03;;;3.83;;
58878;SDS011;44660;42.664;23.266;2023-03-01T13:54:53;10.45;;;3.95;;
58878;SDS011;44660;42.664;23.266;2023-03-01T13:57:22;4.45;;;3.72;;
58878;SDS011;44660;42.664;23.266;2023-03-01T13:59:54;4.15;;;2.60;;
58878;SDS011;44660;42.664;23.266;2023-03-01T14:02:20;4.55;;;3.63;;
58878;SDS011;44660;42.664;23.266;2023-03-01T14:04:55;4.18;;;3.10;;
58878;SDS011;44660;42.664;23.266;2023-03-01T14:07:23;4.38;;;2.80;;
58878;SDS011;44660;42.664;23.266;2023-03-01T14:09:52;5.10;;;3.05;;
58878;SDS011;44660;42.664;23.266;2023-03-01T14:15:22;5.32;;;3.50;;
58878;SDS011;44660;42.664;23.266;2023-03-01T14:20:44;5.43;;;3.47;;
58878;SDS011;44660;42.664;23.266;2023-03-01T14:23:18;5.68;;;3.28;;
58878;SDS011;44660;42.664;23.266;2023-03-01T14:25:47;7.38;;;3.50;;
58878;SDS011;44660;42.664;23.266;2023-03-01T14:30:42;7.72;;;4.30;;
58878;SDS011;44660;42.664;23.266;2023-03-01T14:33:25;10.07;;;3.80;;
58878;SDS011;44660;42.664;23.266;2023-03-01T14:36:25;8.73;;;4.65;;
58878;SDS011;44660;42.664;23.266;2023-03-01T14:38:50;6.55;;;3.45;;
58878;SDS011;44660;42.664;23.266;2023-03-01T14:43:53;4.85;;;3.42;;
58878;SDS011;44660;42.664;23.266;2023-03-01T14:49:01;6.38;;;3.75;;
58878;SDS011;44660;42.664;23.266;2023-03-01T14:51:29;7.60;;;3.58;;
58878;SDS011;44660;42.664;23.266;2023-03-01T14:53:55;7.30;;;3.47;;
58878;SDS011;44660;42.664;23.266;2023-03-01T14:56:21;6.95;;;3.40;;
58878;SDS011;44660;42.664;23.266;2023-03-01T14:58:50;5.20;;;3.40;;
58878;SDS011;44660;42.664;23.266;2023-03-01T15:01:17;6.72;;;3.50;;
58878;SDS011;44660;42.664;23.266;2023-03-01T15:03:44;5.22;;;3.53;;
58878;SDS011;44660;42.664;23.266;2023-03-01T15:06:14;4.78;;;3.15;;
58878;SDS011;44660;42.664;23.266;2023-03-01T15:08:42;5.72;;;3.63;;
58878;SDS011;44660;42.664;23.266;2023-03-01T15:13:43;9.18;;;4.30;;
58878;SDS011;44660;42.664;23.266;2023-03-01T15:18:43;4.95;;;3.33;;
58878;SDS011;44660;42.664;23.266;2023-03-01T15:21:16;4.90;;;3.30;;
58878;SDS011;44660;42.664;23.266;2023-03-01T15:23:47;6.10;;;3.50;;
58878;SDS011;44660;42.664;23.266;2023-03-01T15:26:25;7.82;;;3.85;;
58878;SDS011;44660;42.664;23.266;2023-03-01T15:28:55;6.80;;;4.10;;
58878;SDS011;44660;42.664;23.266;2023-03-01T15:31:41;7.13;;;4.30;;
58878;SDS011;44660;42.664;23.266;2023-03-01T15:34:07;12.82;;;6.85;;
58878;SDS011;44660;42.664;23.266;2023-03-01T15:36:47;8.23;;;5.22;;
58878;SDS011;44660;42.664;23.266;2023-03-01T15:39:35;6.75;;;4.47;;
58878;SDS011;44660;42.664;23.266;2023-03-01T15:42:35;9.32;;;4.65;;
58878;SDS011;44660;42.664;23.266;2023-03-01T15:45:09;7.57;;;3.63;;
58878;SDS011;44660;42.664;23.266;2023-03-01T15:47:36;6.93;;;4.38;;
58878;SDS011;44660;42.664;23.266;2023-03-01T15:50:05;9.90;;;4.30;;
58878;SDS011;44660;42.664;23.266;2023-03-01T15:52:41;9.60;;;5.40;;
58878;SDS011;44660;42.664;23.266;2023-03-01T15:55:20;12.85;;;5.40;;
58878;SDS011;44660;42.664;23.266;2023-03-01T15:58:04;6.63;;;4.57;;
58878;SDS011;44660;42.664;23.266;2023-03-01T16:00:34;7.72;;;4.00;;
58878;SDS011;44660;42.664;23.266;2023-03-01T16:03:00;6.70;;;4.28;;
58878;SDS011;44660;42.664;23.266;2023-03-01T16:05:29;8.93;;;4.57;;
58878;SDS011;44660;42.664;23.266;2023-03-01T16:07:57;8.88;;;5.30;;
58878;SDS011;44660;42.664;23.266;2023-03-01T16:10:22;8.73;;;4.68;;
58878;SDS011;44660;42.664;23.266;2023-03-01T16:12:49;7.43;;;4.10;;
58878;SDS011;44660;42.664;23.266;2023-03-01T16:15:21;6.57;;;3.85;;
58878;SDS011;44660;42.664;23.266;2023-03-01T16:17:49;6.97;;;4.05;;
58878;SDS011;44660;42.664;23.266;2023-03-01T16:20:15;7.85;;;4.25;;
58878;SDS011;44660;42.664;23.266;2023-03-01T16:22:44;11.38;;;4.88;;
58878;SDS011;44660;42.664;23.266;2023-03-01T16:25:11;9.15;;;4.13;;
58878;SDS011;44660;42.664;23.266;2023-03-01T16:27:38;7.32;;;4.10;;
58878;SDS011;44660;42.664;23.266;2023-03-01T16:30:06;11.60;;;5.50;;
58878;SDS011;44660;42.664;23.266;2023-03-01T16:32:32;7.50;;;4.22;;
58878;SDS011;44660;42.664;23.266;2023-03-01T16:34:57;7.50;;;4.05;;
58878;SDS011;44660;42.664;23.266;2023-03-01T16:37:23;6.82;;;4.28;;
58878;SDS011;44660;42.664;23.266;2023-03-01T16:39:48;10.05;;;4.50;;
58878;SDS011;44660;42.664;23.266;2023-03-01T16:42:17;6.75;;;4.30;;
58878;SDS011;44660;42.664;23.266;2023-03-01T16:44:42;7.30;;;3.78;;
58878;SDS011;44660;42.664;23.266;2023-03-01T16:47:08;8.63;;;4.18;;
58878;SDS011;44660;42.664;23.266;2023-03-01T16:49:33;5.97;;;4.13;;
58878;SDS011;44660;42.664;23.266;2023-03-01T16:51:59;9.50;;;3.90;;
58878;SDS011;44660;42.664;23.266;2023-03-01T16:54:24;8.60;;;4.82;;
58878;SDS011;44660;42.664;23.266;2023-03-01T16:56:50;7.35;;;4.38;;
58878;SDS011;44660;42.664;23.266;2023-03-01T16:59:15;8.15;;;4.40;;
58878;SDS011;44660;42.664;23.266;2023-03-01T17:01:43;8.43;;;4.22;;
58878;SDS011;44660;42.664;23.266;2023-03-01T17:04:11;7.63;;;4.20;;
58878;SDS011;44660;42.664;23.266;2023-03-01T17:06:37;10.10;;;5.37;;
58878;SDS011;44660;42.664;23.266;2023-03-01T17:09:03;7.90;;;5.20;;
58878;SDS011;44660;42.664;23.266;2023-03-01T17:11:28;7.97;;;4.32;;
58878;SDS011;44660;42.664;23.266;2023-03-01T17:13:54;20.25;;;9.38;;